createdAt,value
2018-12-12T00:00:42.511Z,13.78
2018-12-12T00:03:10.671Z,16.37
2018-12-12T00:05:38.885Z,16.93
2018-12-12T00:08:07.074Z,15.30
2018-12-12T00:10:35.142Z,14.87
2018-12-12T00:13:03.450Z,14.50
2018-12-12T00:15:32.077Z,17.25
2018-12-12T00:18:00.309Z,16.10
2018-12-12T00:20:28.541Z,16.53
2018-12-12T00:22:56.727Z,17.32
2018-12-12T00:25:24.882Z,17.42
2018-12-12T00:27:53.049Z,16.85
2018-12-12T00:30:21.355Z,16.93
2018-12-12T00:32:49.590Z,17.80
2018-12-12T00:35:17.830Z,19.17
2018-12-12T00:37:46.028Z,15.32
2018-12-12T00:40:14.284Z,17.57
2018-12-12T00:42:42.555Z,16.55
2018-12-12T00:45:10.721Z,17.73
2018-12-12T00:47:39.038Z,17.15
2018-12-12T00:50:07.266Z,19.67
2018-12-12T00:52:35.466Z,16.17
2018-12-12T00:55:03.679Z,18.05
2018-12-12T00:57:32.431Z,18.73
2018-12-12T01:00:00.721Z,16.12
2018-12-12T01:02:28.989Z,15.68
2018-12-12T01:04:57.067Z,16.75
2018-12-12T01:07:25.330Z,17.00
2018-12-12T01:09:53.581Z,19.75
2018-12-12T01:12:21.669Z,19.10
2018-12-12T01:14:49.952Z,17.12
2018-12-12T01:17:18.254Z,19.10
2018-12-12T01:19:46.342Z,18.45
2018-12-12T01:22:14.493Z,16.70
2018-12-12T01:24:42.885Z,17.27
2018-12-12T01:27:11.096Z,19.37
2018-12-12T01:29:39.510Z,20.15
2018-12-12T01:32:07.662Z,17.82
2018-12-12T01:34:35.927Z,20.23
2018-12-12T01:37:04.452Z,21.48
2018-12-12T01:39:32.526Z,20.73
2018-12-12T01:42:00.836Z,20.43
2018-12-12T01:44:28.989Z,18.65
2018-12-12T01:46:57.145Z,19.17
2018-12-12T01:49:25.218Z,19.90
2018-12-12T01:51:53.477Z,20.68
2018-12-12T01:54:21.882Z,20.80
2018-12-12T01:56:49.965Z,22.52
2018-12-12T01:59:18.061Z,21.55
2018-12-12T02:01:46.175Z,20.08
2018-12-12T02:04:14.343Z,20.43
2018-12-12T02:06:42.611Z,20.85
2018-12-12T02:09:10.731Z,23.80
2018-12-12T02:11:39.160Z,19.27
2018-12-12T02:14:07.303Z,22.93
2018-12-12T02:16:35.409Z,23.15
2018-12-12T02:19:03.770Z,24.85
2018-12-12T02:21:31.953Z,20.88
2018-12-12T02:24:00.172Z,23.00
2018-12-12T02:26:28.291Z,23.87
2018-12-12T02:28:56.446Z,22.87
2018-12-12T02:31:24.727Z,25.65
2018-12-12T02:33:52.951Z,23.57
2018-12-12T02:36:21.297Z,21.87
2018-12-12T02:38:49.611Z,24.47
2018-12-12T02:41:17.828Z,25.23
2018-12-12T02:43:46.180Z,27.85
2018-12-12T02:46:14.297Z,27.90
2018-12-12T02:48:42.576Z,27.45
2018-12-12T02:51:10.701Z,26.65
2018-12-12T02:53:39.041Z,26.37
2018-12-12T02:56:07.247Z,31.65
2018-12-12T02:58:35.362Z,27.35
2018-12-12T03:01:03.572Z,29.50
2018-12-12T03:03:31.955Z,29.63
2018-12-12T03:06:00.106Z,31.55
2018-12-12T03:08:28.494Z,33.70
2018-12-12T03:10:56.628Z,31.97
2018-12-12T03:13:24.999Z,33.73
2018-12-12T03:15:53.221Z,32.65
2018-12-12T03:18:21.355Z,31.55
2018-12-12T03:20:49.676Z,30.03
2018-12-12T03:23:17.871Z,32.58
2018-12-12T03:25:46.042Z,29.92
2018-12-12T03:28:14.301Z,29.10
2018-12-12T03:30:42.800Z,30.40
2018-12-12T03:33:11.020Z,33.15
2018-12-12T03:35:39.363Z,30.65
2018-12-12T03:38:07.539Z,31.33
2018-12-12T03:40:36.042Z,31.37
2018-12-12T03:43:04.507Z,30.85
2018-12-12T03:45:32.783Z,30.10
2018-12-12T03:48:00.974Z,32.17
2018-12-12T03:50:29.141Z,32.17
2018-12-12T03:52:57.324Z,31.05
2018-12-12T03:55:25.513Z,30.57
2018-12-12T03:57:53.674Z,30.67
2018-12-12T04:00:21.781Z,30.77
2018-12-12T04:02:49.947Z,32.17
2018-12-12T04:05:18.379Z,35.10
2018-12-12T04:07:46.689Z,32.58
2018-12-12T04:10:14.871Z,29.42
2018-12-12T04:12:43.006Z,32.80
2018-12-12T04:15:11.238Z,33.70
2018-12-12T04:17:39.401Z,30.75
2018-12-12T04:20:07.775Z,32.42
2018-12-12T04:22:36.266Z,29.77
2018-12-12T04:25:05.366Z,31.35
2018-12-12T04:27:33.814Z,29.82
2018-12-12T04:30:02.066Z,28.37
2018-12-12T04:32:30.207Z,31.57
2018-12-12T04:34:58.354Z,32.35
2018-12-12T04:37:26.486Z,32.53
2018-12-12T04:39:54.791Z,32.28
2018-12-12T04:42:23.019Z,33.45
2018-12-12T04:44:51.430Z,31.90
2018-12-12T04:47:19.686Z,30.25
2018-12-12T04:49:47.970Z,31.12
2018-12-12T04:52:16.222Z,30.08
2018-12-12T04:54:44.375Z,32.17
2018-12-12T04:57:12.547Z,32.20
2018-12-12T04:59:40.731Z,26.62
2018-12-12T05:02:09.144Z,26.68
2018-12-12T05:04:37.851Z,30.32
2018-12-12T05:07:05.877Z,30.82
2018-12-12T05:09:34.113Z,31.55
2018-12-12T05:12:02.390Z,35.23
2018-12-12T05:14:30.563Z,32.88
2018-12-12T05:16:58.822Z,34.78
2018-12-12T05:19:26.953Z,31.73
2018-12-12T05:21:55.681Z,34.95
2018-12-12T05:24:23.758Z,34.13
2018-12-12T05:26:52.050Z,35.70
2018-12-12T05:29:20.176Z,35.85
2018-12-12T05:31:48.385Z,35.20
2018-12-12T05:34:16.500Z,38.02
2018-12-12T05:36:44.649Z,35.30
2018-12-12T05:39:12.923Z,35.80
2018-12-12T05:41:41.211Z,36.53
2018-12-12T05:44:09.372Z,36.42
2018-12-12T05:46:41.751Z,36.73
2018-12-12T05:49:07.679Z,35.15
2018-12-12T05:51:35.817Z,36.68
2018-12-12T05:54:04.096Z,41.05
2018-12-12T05:56:32.181Z,39.50
2018-12-12T05:59:00.434Z,38.45
2018-12-12T06:01:28.655Z,38.17
2018-12-12T06:03:56.832Z,35.70
2018-12-12T06:06:25.067Z,35.95
2018-12-12T06:08:53.363Z,38.55
2018-12-12T06:11:21.491Z,38.08
2018-12-12T06:13:49.569Z,36.67
2018-12-12T06:16:17.812Z,35.95
2018-12-12T06:18:45.899Z,39.55
2018-12-12T06:21:14.195Z,35.33
2018-12-12T06:23:42.555Z,40.10
2018-12-12T06:26:10.623Z,37.70
2018-12-12T06:28:38.821Z,38.75
2018-12-12T06:31:07.119Z,37.58
2018-12-12T06:33:35.350Z,39.30
2018-12-12T06:36:03.589Z,41.70
2018-12-12T06:38:31.694Z,39.83
2018-12-12T06:40:59.777Z,41.03
2018-12-12T06:43:28.003Z,38.85
2018-12-12T06:45:56.081Z,39.30
2018-12-12T06:48:24.297Z,39.18
2018-12-12T06:50:52.367Z,42.83
2018-12-12T06:53:20.441Z,42.73
2018-12-12T06:55:48.584Z,42.10
2018-12-12T06:58:16.692Z,41.42
2018-12-12T07:00:44.970Z,40.00
2018-12-12T07:03:13.150Z,45.75
2018-12-12T07:05:41.495Z,44.87
2018-12-12T07:08:09.748Z,41.05
2018-12-12T07:10:38.007Z,43.50
2018-12-12T07:13:06.361Z,43.20
2018-12-12T07:15:34.704Z,42.05
2018-12-12T07:18:02.818Z,39.03
2018-12-12T07:20:31.047Z,46.63
2018-12-12T07:22:59.231Z,40.97
2018-12-12T07:25:27.496Z,43.55
2018-12-12T07:27:55.605Z,44.53
2018-12-12T07:30:23.813Z,40.20
2018-12-12T07:32:52.034Z,40.23
2018-12-12T07:35:20.217Z,39.73
2018-12-12T07:37:48.438Z,37.37
2018-12-12T07:40:16.793Z,35.45
2018-12-12T07:42:44.942Z,39.33
2018-12-12T07:45:13.157Z,39.85
2018-12-12T07:47:41.439Z,38.58
2018-12-12T07:50:09.675Z,37.23
2018-12-12T07:52:37.942Z,37.93
2018-12-12T07:55:06.237Z,40.65
2018-12-12T07:57:34.461Z,37.48
2018-12-12T08:00:03.041Z,38.60
2018-12-12T08:02:31.239Z,42.60
2018-12-12T08:04:59.390Z,40.40
2018-12-12T08:07:27.469Z,39.13
2018-12-12T08:09:55.586Z,39.95
2018-12-12T08:12:23.761Z,39.42
2018-12-12T08:14:51.980Z,38.70
2018-12-12T08:17:20.363Z,37.73
2018-12-12T08:19:48.441Z,35.90
2018-12-12T08:22:16.758Z,39.83
2018-12-12T08:24:44.833Z,41.08
2018-12-12T08:27:13.046Z,39.98
2018-12-12T08:29:41.177Z,38.77
2018-12-12T08:32:09.366Z,38.67
2018-12-12T08:34:37.639Z,37.85
2018-12-12T08:37:05.832Z,38.25
2018-12-12T08:39:33.985Z,36.58
2018-12-12T08:42:02.173Z,39.63
2018-12-12T08:44:30.321Z,42.53
2018-12-12T08:46:58.558Z,39.20
2018-12-12T08:49:26.685Z,41.48
2018-12-12T08:51:54.883Z,40.67
2018-12-12T08:54:23.069Z,43.97
2018-12-12T08:56:52.570Z,39.55
2018-12-12T08:59:20.802Z,37.42
2018-12-12T09:01:48.934Z,39.35
2018-12-12T09:04:17.301Z,38.88
2018-12-12T09:06:45.590Z,40.77
2018-12-12T09:09:13.810Z,38.25
2018-12-12T09:11:42.104Z,34.08
2018-12-12T09:14:10.261Z,34.83
2018-12-12T09:16:38.438Z,35.45
2018-12-12T09:19:06.607Z,31.17
2018-12-12T09:21:35.843Z,29.37
2018-12-12T09:24:04.744Z,25.85
2018-12-12T09:26:32.914Z,26.10
2018-12-12T09:29:01.077Z,25.17
2018-12-12T09:31:29.241Z,19.75
2018-12-12T09:33:57.487Z,17.63
2018-12-12T09:36:25.936Z,20.35
2018-12-12T09:38:54.030Z,15.48
2018-12-12T09:41:22.121Z,15.10
2018-12-12T09:43:50.207Z,16.05
2018-12-12T09:46:18.539Z,12.93
2018-12-12T09:48:46.780Z,11.38
2018-12-12T09:51:15.018Z,10.88
2018-12-12T09:53:43.114Z,10.68
2018-12-12T09:56:11.434Z,10.95
2018-12-12T09:58:39.629Z,11.23
2018-12-12T10:01:07.885Z,10.78
2018-12-12T10:03:36.222Z,10.58
2018-12-12T10:06:04.603Z,11.65
2018-12-12T10:08:32.698Z,10.88
2018-12-12T10:11:00.950Z,10.65
2018-12-12T10:13:29.258Z,11.38
2018-12-12T10:15:57.431Z,11.83
2018-12-12T10:18:25.573Z,9.08
2018-12-12T10:20:53.758Z,12.10
2018-12-12T10:23:21.846Z,9.58
2018-12-12T10:25:49.998Z,13.03
2018-12-12T10:28:18.171Z,12.23
2018-12-12T10:30:46.298Z,12.55
2018-12-12T10:33:14.452Z,9.13
2018-12-12T10:35:42.661Z,9.90
2018-12-12T10:38:10.885Z,11.78
2018-12-12T10:40:39.015Z,10.10
2018-12-12T10:43:07.308Z,11.75
2018-12-12T10:45:35.448Z,10.13
2018-12-12T10:48:03.723Z,11.37
2018-12-12T10:50:31.950Z,10.15
2018-12-12T10:53:00.205Z,11.12
2018-12-12T10:55:28.410Z,12.23
2018-12-12T10:57:56.527Z,10.15
2018-12-12T11:00:24.759Z,11.78
2018-12-12T11:02:58.421Z,11.63
2018-12-12T11:05:26.765Z,9.20
2018-12-12T11:07:54.942Z,9.27
2018-12-12T11:10:23.074Z,9.18
2018-12-12T11:12:51.224Z,9.23
2018-12-12T11:15:19.401Z,10.10
2018-12-12T11:17:47.561Z,8.95
2018-12-12T11:20:15.659Z,8.65
2018-12-12T11:22:43.876Z,9.13
2018-12-12T11:25:12.170Z,9.33
2018-12-12T11:27:40.314Z,8.75
2018-12-12T11:30:08.493Z,9.35
2018-12-12T11:32:36.734Z,10.00
2018-12-12T11:35:05.152Z,10.00
2018-12-12T11:37:33.462Z,9.83
2018-12-12T11:40:01.548Z,10.20
2018-12-12T11:42:29.745Z,9.70
2018-12-12T11:44:57.807Z,9.60
2018-12-12T11:47:25.885Z,9.55
2018-12-12T11:49:54.098Z,11.18
2018-12-12T11:52:22.167Z,10.43
2018-12-12T11:54:50.418Z,10.20
2018-12-12T11:57:18.785Z,10.32
2018-12-12T11:59:46.898Z,9.70
2018-12-12T12:02:15.037Z,10.43
2018-12-12T12:04:43.161Z,10.78
2018-12-12T12:07:11.322Z,9.83
2018-12-12T12:09:39.459Z,12.23
2018-12-12T12:12:07.650Z,10.67
2018-12-12T12:14:35.805Z,10.80
2018-12-12T12:17:04.115Z,10.58
2018-12-12T12:19:32.340Z,11.05
2018-12-12T12:22:01.344Z,12.53
2018-12-12T12:24:29.622Z,13.78
2018-12-12T12:26:57.915Z,10.98
2018-12-12T12:29:26.230Z,12.00
2018-12-12T12:31:54.425Z,12.18
2018-12-12T12:34:22.634Z,12.55
2018-12-12T12:36:51.017Z,13.30
2018-12-12T12:39:19.182Z,14.47
2018-12-12T12:41:47.274Z,11.10
2018-12-12T12:44:15.349Z,12.07
2018-12-12T12:46:43.807Z,10.95
2018-12-12T12:49:11.897Z,10.75
2018-12-12T12:51:40.130Z,11.00
2018-12-12T12:54:08.281Z,12.78
2018-12-12T12:56:36.452Z,10.28
2018-12-12T12:59:04.773Z,9.95
2018-12-12T13:01:32.950Z,10.45
2018-12-12T13:04:01.070Z,9.88
2018-12-12T13:06:29.338Z,8.45
2018-12-12T13:08:57.549Z,11.10
2018-12-12T13:11:25.802Z,10.72
2018-12-12T13:13:54.033Z,9.70
2018-12-12T13:16:22.243Z,11.68
2018-12-12T13:18:50.393Z,9.85
2018-12-12T13:21:18.539Z,9.75
2018-12-12T13:23:46.767Z,10.28
2018-12-12T13:26:14.913Z,10.13
2018-12-12T13:28:43.155Z,9.85
2018-12-12T13:31:11.265Z,9.43
2018-12-12T13:33:39.459Z,9.83
2018-12-12T13:36:07.689Z,9.50
2018-12-12T13:38:35.865Z,9.75
2018-12-12T13:41:04.152Z,9.95
2018-12-12T13:43:32.231Z,10.45
2018-12-12T13:46:00.434Z,9.50
2018-12-12T13:48:29.267Z,9.80
2018-12-12T13:50:57.453Z,9.28
2018-12-12T13:53:25.590Z,9.70
2018-12-12T13:55:53.769Z,9.55
2018-12-12T13:58:21.913Z,10.35
2018-12-12T14:00:50.110Z,9.18
2018-12-12T14:03:18.250Z,9.73
2018-12-12T14:05:46.300Z,10.68
2018-12-12T14:08:14.369Z,11.12
2018-12-12T14:10:42.503Z,10.78
2018-12-12T14:13:10.555Z,9.65
2018-12-12T14:15:38.803Z,9.50
2018-12-12T14:18:06.999Z,8.90
2018-12-12T14:20:35.125Z,9.48
2018-12-12T14:23:03.327Z,9.87
2018-12-12T14:25:31.537Z,8.70
2018-12-12T14:27:59.754Z,8.93
2018-12-12T14:30:27.949Z,8.60
2018-12-12T14:32:56.116Z,8.93
2018-12-12T14:35:24.357Z,10.60
2018-12-12T14:37:52.527Z,7.72
2018-12-12T14:40:20.570Z,8.58
2018-12-12T14:42:48.766Z,9.20
2018-12-12T14:45:16.969Z,8.60
2018-12-12T14:47:45.182Z,8.18
2018-12-12T14:50:13.362Z,7.90
2018-12-12T14:52:41.519Z,8.00
2018-12-12T14:55:09.597Z,8.15
2018-12-12T14:57:37.854Z,7.35
2018-12-12T15:00:06.078Z,8.20
2018-12-12T15:02:34.214Z,8.20
2018-12-12T15:05:02.421Z,7.65
2018-12-12T15:07:30.641Z,7.73
2018-12-12T15:09:58.874Z,7.60
2018-12-12T15:12:27.086Z,7.40
2018-12-12T15:14:55.297Z,7.97
2018-12-12T15:17:23.465Z,8.45
2018-12-12T15:19:51.563Z,7.90
2018-12-12T15:22:19.913Z,7.50
2018-12-12T15:24:48.078Z,7.65
2018-12-12T15:27:16.437Z,7.47
2018-12-12T15:29:44.557Z,9.00
2018-12-12T15:32:12.770Z,7.92
2018-12-12T15:34:42.416Z,7.67
2018-12-12T15:37:10.734Z,8.10
2018-12-12T15:39:38.861Z,9.00
2018-12-12T15:42:07.119Z,8.03
2018-12-12T15:44:35.378Z,7.95
2018-12-12T15:47:03.778Z,7.75
2018-12-12T15:49:31.922Z,7.90
2018-12-12T15:52:00.069Z,8.10
2018-12-12T15:54:28.399Z,8.20
2018-12-12T15:56:56.591Z,8.00
2018-12-12T15:59:24.946Z,8.43
2018-12-12T16:01:53.175Z,8.38
2018-12-12T16:04:21.266Z,8.40
2018-12-12T16:06:49.736Z,8.83
2018-12-12T16:09:17.919Z,8.95
2018-12-12T16:11:46.305Z,9.20
2018-12-12T16:14:17.621Z,8.77
2018-12-12T16:19:49.129Z,15.70
2018-12-12T16:22:17.464Z,9.23
2018-12-12T16:24:45.544Z,8.65
2018-12-12T16:27:13.743Z,8.77
2018-12-12T16:29:41.851Z,8.88
2018-12-12T16:32:10.131Z,9.15
2018-12-12T16:34:38.268Z,8.87
2018-12-12T16:37:06.419Z,8.80
2018-12-12T16:39:34.779Z,8.85
2018-12-12T16:42:02.965Z,8.83
2018-12-12T16:44:31.046Z,8.78
2018-12-12T16:46:59.331Z,8.88
2018-12-12T16:49:27.441Z,9.20
2018-12-12T16:51:55.655Z,9.20
2018-12-12T16:54:23.777Z,9.13
2018-12-12T16:56:51.886Z,8.85
2018-12-12T16:59:20.149Z,9.10
2018-12-12T17:01:48.451Z,8.65
2018-12-12T17:04:16.884Z,9.23
2018-12-12T17:06:45.010Z,9.80
2018-12-12T17:09:13.268Z,9.10
2018-12-12T17:11:41.566Z,9.68
2018-12-12T17:14:09.939Z,10.05
2018-12-12T17:16:38.401Z,9.65
2018-12-12T17:19:06.580Z,9.30
2018-12-12T17:21:34.758Z,9.50
2018-12-12T17:24:02.952Z,9.37
2018-12-12T17:26:31.053Z,9.40
2018-12-12T17:28:59.329Z,8.95
2018-12-12T17:31:27.555Z,8.80
2018-12-12T17:33:55.853Z,9.83
2018-12-12T17:36:24.103Z,8.43
2018-12-12T17:38:52.338Z,11.38
2018-12-12T17:41:21.818Z,9.95
2018-12-12T17:43:50.185Z,11.53
2018-12-12T17:46:18.587Z,8.13
2018-12-12T17:48:46.771Z,12.50
2018-12-12T17:51:14.983Z,10.20
2018-12-12T17:53:43.235Z,8.58
2018-12-12T17:56:11.396Z,9.73
2018-12-12T17:58:39.506Z,8.83
2018-12-12T18:01:07.936Z,8.65
2018-12-12T18:03:36.147Z,8.68
2018-12-12T18:06:04.375Z,9.68
2018-12-12T18:08:32.635Z,8.67
2018-12-12T18:11:01.032Z,8.80
2018-12-12T18:13:29.188Z,9.08
2018-12-12T18:15:57.295Z,10.28
2018-12-12T18:18:25.430Z,8.75
2018-12-12T18:20:53.550Z,8.73
2018-12-12T18:23:22.852Z,8.93
2018-12-12T18:25:51.052Z,8.80
2018-12-12T18:28:19.400Z,9.83
2018-12-12T18:30:47.488Z,9.00
2018-12-12T18:33:15.623Z,8.88
2018-12-12T18:35:43.822Z,9.08
2018-12-12T18:38:11.925Z,10.13
2018-12-12T18:40:40.035Z,9.70
2018-12-12T18:43:08.252Z,9.85
2018-12-12T18:45:36.375Z,10.48
2018-12-12T18:48:04.460Z,10.13
2018-12-12T18:50:32.671Z,9.40
2018-12-12T18:53:00.815Z,9.80
2018-12-12T18:55:28.940Z,9.28
2018-12-12T18:57:57.195Z,10.05
2018-12-12T19:00:25.550Z,9.25
2018-12-12T19:02:53.675Z,9.78
2018-12-12T19:05:28.092Z,10.18
2018-12-12T19:07:52.039Z,10.87
2018-12-12T19:10:20.283Z,11.15
2018-12-12T19:12:48.402Z,10.63
2018-12-12T19:15:16.657Z,10.20
2018-12-12T19:17:45.179Z,10.80
2018-12-12T19:20:13.338Z,11.17
2018-12-12T19:22:41.508Z,12.47
2018-12-12T19:25:09.855Z,11.60
2018-12-12T19:27:38.031Z,11.55
2018-12-12T19:30:06.880Z,11.38
2018-12-12T19:32:35.084Z,14.33
2018-12-12T19:35:03.570Z,17.10
2018-12-12T19:37:31.679Z,13.78
2018-12-12T19:39:59.820Z,10.80
2018-12-12T19:42:28.079Z,10.30
2018-12-12T19:44:56.390Z,9.60
2018-12-12T19:47:24.627Z,8.35
2018-12-12T19:49:52.940Z,8.13
2018-12-12T19:52:21.091Z,9.28
2018-12-12T19:54:49.306Z,8.70
2018-12-12T19:57:17.826Z,12.40
2018-12-12T19:59:46.085Z,26.15
2018-12-12T20:02:14.301Z,12.00
2018-12-12T20:04:42.747Z,17.62
2018-12-12T20:07:11.078Z,22.73
2018-12-12T20:09:39.292Z,18.27
2018-12-12T20:12:07.503Z,10.23
2018-12-12T20:14:35.675Z,10.23
2018-12-12T20:17:03.888Z,8.23
2018-12-12T20:19:31.966Z,8.15
2018-12-12T20:22:00.336Z,8.95
2018-12-12T20:24:28.514Z,8.70
2018-12-12T20:26:56.996Z,10.80
2018-12-12T20:29:25.162Z,9.40
2018-12-12T20:31:53.738Z,9.08
2018-12-12T20:34:21.871Z,9.28
2018-12-12T20:36:50.088Z,8.35
2018-12-12T20:39:18.264Z,8.40
2018-12-12T20:41:46.407Z,8.48
2018-12-12T20:44:14.523Z,8.40
2018-12-12T20:46:42.815Z,8.50
2018-12-12T20:49:10.918Z,8.70
2018-12-12T20:51:39.014Z,8.80
2018-12-12T20:54:07.246Z,12.30
2018-12-12T20:56:35.530Z,10.45
2018-12-12T20:59:03.870Z,10.63
2018-12-12T21:01:32.099Z,11.22
2018-12-12T21:04:00.357Z,11.75
2018-12-12T21:06:28.595Z,11.95
2018-12-12T21:08:56.735Z,13.32
2018-12-12T21:11:24.910Z,12.83
2018-12-12T21:13:53.115Z,12.03
2018-12-12T21:16:21.339Z,11.38
2018-12-12T21:18:49.435Z,9.25
2018-12-12T21:21:17.560Z,10.15
2018-12-12T21:23:45.808Z,10.28
2018-12-12T21:26:14.585Z,9.15
2018-12-12T21:28:42.771Z,8.88
2018-12-12T21:31:10.878Z,9.50
2018-12-12T21:33:38.981Z,9.23
2018-12-12T21:36:07.222Z,9.30
2018-12-12T21:38:35.336Z,9.65
2018-12-12T21:41:03.523Z,8.58
2018-12-12T21:43:31.719Z,9.30
2018-12-12T21:46:01.266Z,8.70
2018-12-12T21:48:29.725Z,9.55
2018-12-12T21:50:58.004Z,10.05
2018-12-12T21:53:26.099Z,9.25
2018-12-12T21:55:54.291Z,9.70
2018-12-12T21:58:22.377Z,9.88
2018-12-12T22:00:50.554Z,9.43
2018-12-12T22:03:18.805Z,10.18
2018-12-12T22:05:46.959Z,10.93
2018-12-12T22:08:15.059Z,11.55
2018-12-12T22:10:43.302Z,26.27
2018-12-12T22:13:11.400Z,23.95
2018-12-12T22:15:39.702Z,28.15
2018-12-12T22:18:07.896Z,23.87
2018-12-12T22:20:36.102Z,20.02
2018-12-12T22:23:04.204Z,17.27
2018-12-12T22:25:32.774Z,14.30
2018-12-12T22:28:01.011Z,13.67
2018-12-12T22:30:29.250Z,12.43
2018-12-12T22:32:57.404Z,10.82
2018-12-12T22:35:25.570Z,10.18
2018-12-12T22:37:53.802Z,9.55
2018-12-12T22:40:22.089Z,9.85
2018-12-12T22:42:50.342Z,10.75
2018-12-12T22:45:18.442Z,9.65
2018-12-12T22:47:46.614Z,10.15
2018-12-12T22:50:14.832Z,9.88
2018-12-12T22:52:42.907Z,9.80
2018-12-12T22:55:11.094Z,10.93
2018-12-12T22:57:39.271Z,9.25
2018-12-12T23:00:10.051Z,9.75
2018-12-12T23:02:39.228Z,11.00
2018-12-12T23:05:07.543Z,9.73
2018-12-12T23:07:35.679Z,8.80
2018-12-12T23:10:04.002Z,8.77
2018-12-12T23:12:32.284Z,9.73
2018-12-12T23:15:00.499Z,9.13
2018-12-12T23:17:28.787Z,9.83
2018-12-12T23:19:56.888Z,9.43
2018-12-12T23:22:25.076Z,9.47
2018-12-12T23:24:53.231Z,10.43
2018-12-12T23:27:21.470Z,9.80
2018-12-12T23:29:49.719Z,11.22
2018-12-12T23:32:17.839Z,11.78
2018-12-12T23:34:45.999Z,10.82
2018-12-12T23:37:14.096Z,10.58
2018-12-12T23:39:42.182Z,10.93
2018-12-12T23:42:10.448Z,10.30
2018-12-12T23:44:38.581Z,11.18
2018-12-12T23:47:06.746Z,9.88
2018-12-12T23:49:34.972Z,10.78
2018-12-12T23:52:03.203Z,10.88
2018-12-12T23:54:31.365Z,12.50
2018-12-12T23:56:59.519Z,12.37
2018-12-12T23:59:27.666Z,11.03
